createdAt,value
2019-04-03T00:00:12.992Z,8.40
2019-04-03T00:02:44.814Z,7.73
2019-04-03T00:05:16.430Z,7.97
2019-04-03T00:07:49.421Z,8.67
2019-04-03T00:10:22.547Z,7.73
2019-04-03T00:12:54.065Z,8.03
2019-04-03T00:15:26.706Z,8.33
2019-04-03T00:17:58.230Z,8.17
2019-04-03T00:20:33.150Z,8.30
2019-04-03T00:23:04.637Z,8.33
2019-04-03T00:25:36.088Z,8.27
2019-04-03T00:28:07.645Z,8.30
2019-04-03T00:30:39.124Z,9.97
2019-04-03T00:33:10.669Z,7.70
2019-04-03T00:35:44.043Z,8.20
2019-04-03T00:38:15.674Z,8.43
2019-04-03T00:40:47.189Z,7.60
2019-04-03T00:43:18.657Z,8.40
2019-04-03T00:45:50.166Z,9.03
2019-04-03T00:48:21.712Z,8.33
2019-04-03T00:50:56.380Z,8.97
2019-04-03T00:53:28.493Z,7.90
2019-04-03T00:56:01.460Z,8.33
2019-04-03T00:58:40.653Z,8.27
2019-04-03T01:01:12.905Z,8.57
2019-04-03T01:03:44.433Z,7.77
2019-04-03T01:06:15.919Z,8.17
2019-04-03T01:08:47.368Z,9.50
2019-04-03T01:11:19.067Z,8.20
2019-04-03T01:13:50.680Z,9.40
2019-04-03T01:16:22.396Z,7.87
2019-04-03T01:18:54.678Z,9.37
2019-04-03T01:21:26.398Z,8.40
2019-04-03T01:23:57.985Z,9.37
2019-04-03T01:26:29.474Z,7.27
2019-04-03T01:29:00.999Z,9.37
2019-04-03T01:31:32.493Z,8.70
2019-04-03T01:34:04.231Z,8.83
2019-04-03T01:36:35.690Z,9.43
2019-04-03T01:39:08.321Z,9.20
2019-04-03T01:41:39.776Z,9.63
2019-04-03T01:44:11.252Z,9.00
2019-04-03T01:46:43.130Z,8.87
2019-04-03T01:49:15.010Z,9.23
2019-04-03T01:51:46.528Z,9.63
2019-04-03T01:54:19.580Z,9.80
2019-04-03T01:56:51.299Z,8.87
2019-04-03T01:59:23.026Z,10.17
2019-04-03T02:01:54.643Z,8.43
2019-04-03T02:04:26.278Z,10.37
2019-04-03T02:06:58.195Z,8.93
2019-04-03T02:09:29.761Z,10.50
2019-04-03T02:12:02.917Z,8.73
2019-04-03T02:14:34.440Z,9.80
2019-04-03T02:17:05.872Z,9.23
2019-04-03T02:19:41.922Z,8.93
2019-04-03T02:22:10.840Z,9.90
2019-04-03T02:24:51.481Z,9.67
2019-04-03T02:27:23.005Z,9.40
2019-04-03T02:29:54.533Z,9.30
2019-04-03T02:32:26.029Z,11.70
2019-04-03T02:34:57.468Z,10.23
2019-04-03T02:37:28.906Z,9.93
2019-04-03T02:40:00.598Z,11.17
2019-04-03T02:42:32.359Z,10.13
2019-04-03T02:45:07.994Z,10.97
2019-04-03T02:47:40.649Z,11.47
2019-04-03T02:50:18.069Z,10.37
2019-04-03T02:52:51.539Z,10.27
2019-04-03T02:55:27.947Z,10.80
2019-04-03T02:58:00.667Z,10.13
2019-04-03T03:00:33.711Z,10.50
2019-04-03T03:03:05.425Z,9.93
2019-04-03T03:05:36.907Z,10.20
2019-04-03T03:08:09.544Z,11.00
2019-04-03T03:10:41.440Z,9.30
2019-04-03T03:13:13.035Z,10.00
2019-04-03T03:15:45.011Z,10.77
2019-04-03T03:18:17.216Z,9.80
2019-04-03T03:20:50.157Z,10.23
2019-04-03T03:23:23.353Z,9.47
2019-04-03T03:25:57.160Z,10.73
2019-04-03T03:28:28.692Z,10.30
2019-04-03T03:31:04.063Z,9.90
2019-04-03T03:33:40.416Z,9.50
2019-04-03T03:36:19.462Z,10.33
2019-04-03T03:38:48.767Z,10.60
2019-04-03T03:41:23.881Z,10.77
2019-04-03T03:43:57.537Z,10.73
2019-04-03T03:46:29.510Z,10.13
2019-04-03T03:49:01.424Z,10.87
2019-04-03T03:51:36.028Z,11.17
2019-04-03T03:54:07.801Z,10.90
2019-04-03T03:56:39.487Z,11.10
2019-04-03T03:59:16.939Z,10.57
2019-04-03T04:01:46.807Z,10.00
2019-04-03T04:04:18.540Z,10.87
2019-04-03T04:06:50.633Z,11.53
2019-04-03T04:09:22.635Z,11.37
2019-04-03T04:11:55.473Z,11.70
2019-04-03T04:14:27.008Z,11.87
2019-04-03T04:17:09.591Z,12.27
2019-04-03T04:19:41.063Z,14.13
2019-04-03T04:22:15.583Z,16.10
2019-04-03T04:24:46.120Z,15.60
2019-04-03T04:27:18.961Z,12.50
2019-04-03T04:29:50.539Z,11.73
2019-04-03T04:32:22.488Z,11.03
2019-04-03T04:34:53.964Z,10.93
2019-04-03T04:37:26.412Z,12.50
2019-04-03T04:39:59.729Z,11.13
2019-04-03T04:42:34.492Z,12.07
2019-04-03T04:45:12.402Z,12.00
2019-04-03T04:47:46.894Z,11.03
2019-04-03T04:50:27.443Z,11.73
2019-04-03T04:52:59.468Z,11.10
2019-04-03T04:55:34.989Z,11.67
2019-04-03T04:58:07.070Z,12.60
2019-04-03T05:00:38.778Z,10.47
2019-04-03T05:03:10.225Z,12.17
2019-04-03T05:05:41.712Z,11.40
2019-04-03T05:08:22.294Z,10.80
2019-04-03T05:10:51.840Z,13.03
2019-04-03T05:13:23.625Z,12.20
2019-04-03T05:15:55.229Z,12.43
2019-04-03T05:18:28.605Z,11.43
2019-04-03T05:21:01.050Z,11.30
2019-04-03T05:23:35.864Z,12.13
2019-04-03T05:26:09.045Z,11.90
2019-04-03T05:28:53.249Z,11.67
2019-04-03T05:31:14.344Z,12.10
2019-04-03T05:33:46.204Z,12.40
2019-04-03T05:36:18.375Z,13.77
2019-04-03T05:38:51.017Z,13.60
2019-04-03T05:41:23.068Z,13.00
2019-04-03T05:43:54.779Z,11.57
2019-04-03T05:46:26.229Z,11.77
2019-04-03T05:48:57.985Z,13.57
2019-04-03T05:51:33.690Z,12.63
2019-04-03T05:54:05.933Z,12.07
2019-04-03T05:56:38.909Z,12.90
2019-04-03T05:59:10.391Z,11.73
2019-04-03T06:01:45.727Z,13.13
2019-04-03T06:04:15.028Z,13.77
2019-04-03T06:06:47.312Z,15.53
2019-04-03T06:09:20.098Z,12.93
2019-04-03T06:11:52.864Z,12.70
2019-04-03T06:14:24.382Z,10.53
2019-04-03T06:17:01.559Z,11.37
2019-04-03T06:19:35.464Z,11.43
2019-04-03T06:22:09.874Z,12.00
2019-04-03T06:24:41.637Z,12.50
2019-04-03T06:27:13.167Z,11.37
2019-04-03T06:29:46.184Z,11.90
2019-04-03T06:32:17.649Z,11.47
2019-04-03T06:34:49.137Z,10.93
2019-04-03T06:37:22.227Z,11.23
2019-04-03T06:39:53.957Z,11.47
2019-04-03T06:42:25.511Z,12.83
2019-04-03T06:44:57.997Z,12.37
2019-04-03T06:47:30.323Z,10.80
2019-04-03T06:50:02.530Z,11.20
2019-04-03T06:52:34.086Z,11.87
2019-04-03T06:55:06.001Z,10.63
2019-04-03T06:57:40.048Z,12.37
2019-04-03T07:00:16.913Z,12.33
2019-04-03T07:02:48.128Z,12.00
2019-04-03T07:05:19.880Z,13.53
2019-04-03T07:08:10.585Z,14.20
2019-04-03T07:10:54.235Z,12.33
2019-04-03T07:13:15.451Z,11.30
2019-04-03T07:15:46.996Z,11.33
2019-04-03T07:18:18.500Z,10.03
2019-04-03T07:20:51.779Z,10.07
2019-04-03T07:23:29.952Z,10.80
2019-04-03T07:26:02.944Z,11.53
2019-04-03T07:28:35.357Z,12.73
2019-04-03T07:31:11.102Z,14.87
2019-04-03T07:33:42.900Z,10.43
2019-04-03T07:36:14.616Z,12.80
2019-04-03T07:38:46.227Z,12.23
2019-04-03T07:41:17.692Z,10.73
2019-04-03T07:43:49.160Z,11.90
2019-04-03T07:46:20.625Z,11.63
2019-04-03T07:48:52.430Z,11.43
2019-04-03T07:51:24.283Z,12.17
2019-04-03T07:53:56.073Z,13.07
2019-04-03T07:56:27.787Z,12.70
2019-04-03T07:59:02.664Z,12.67
2019-04-03T08:01:35.070Z,11.77
2019-04-03T08:04:06.590Z,11.87
2019-04-03T08:06:38.183Z,11.43
2019-04-03T08:09:10.492Z,11.37
2019-04-03T08:11:42.130Z,11.37
2019-04-03T08:14:13.594Z,11.13
2019-04-03T08:16:45.951Z,11.03
2019-04-03T08:19:18.209Z,11.23
2019-04-03T08:21:49.700Z,11.80
2019-04-03T08:24:23.599Z,11.43
2019-04-03T08:26:55.096Z,12.80
2019-04-03T08:29:26.954Z,11.57
2019-04-03T08:31:58.517Z,13.30
2019-04-03T08:34:35.171Z,12.20
2019-04-03T08:37:09.492Z,10.63
2019-04-03T08:39:39.963Z,13.23
2019-04-03T08:42:22.208Z,11.03
2019-04-03T08:44:51.397Z,12.50
2019-04-03T08:47:23.147Z,10.73
2019-04-03T08:49:57.432Z,13.23
2019-04-03T08:52:27.802Z,12.57
2019-04-03T08:54:59.320Z,11.97
2019-04-03T08:57:30.817Z,12.43
2019-04-03T09:00:02.524Z,10.97
2019-04-03T09:02:35.498Z,11.57
2019-04-03T09:05:07.643Z,9.90
2019-04-03T09:07:43.282Z,10.30
2019-04-03T09:10:21.325Z,10.70
2019-04-03T09:12:52.883Z,9.60
2019-04-03T09:15:25.839Z,11.27
2019-04-03T09:18:05.562Z,10.40
2019-04-03T09:20:36.131Z,11.30
2019-04-03T09:23:08.725Z,10.33
2019-04-03T09:25:41.757Z,9.80
2019-04-03T09:28:13.543Z,11.60
2019-04-03T09:30:47.953Z,11.23
2019-04-03T09:33:18.868Z,11.57
2019-04-03T09:35:52.146Z,11.93
2019-04-03T09:38:24.210Z,11.63
2019-04-03T09:40:55.817Z,10.47
2019-04-03T09:43:27.864Z,10.67
2019-04-03T09:46:03.669Z,10.27
2019-04-03T09:48:37.077Z,9.53
2019-04-03T09:51:09.798Z,9.97
2019-04-03T09:53:41.605Z,9.33
2019-04-03T09:56:13.454Z,13.40
2019-04-03T09:58:55.493Z,10.67
2019-04-03T10:01:24.935Z,12.60
2019-04-03T10:03:56.850Z,11.90
2019-04-03T10:06:31.344Z,9.80
2019-04-03T10:09:04.669Z,8.97
2019-04-03T10:11:38.464Z,10.80
2019-04-03T10:14:12.286Z,10.43
2019-04-03T10:16:49.107Z,10.60
2019-04-03T10:19:21.218Z,10.63
2019-04-03T10:21:53.576Z,10.03
2019-04-03T10:24:25.486Z,11.07
2019-04-03T10:26:57.092Z,10.67
2019-04-03T10:29:29.045Z,10.47
2019-04-03T10:32:00.726Z,11.80
2019-04-03T10:34:36.219Z,11.67
2019-04-03T10:37:08.200Z,11.07
2019-04-03T10:39:43.739Z,10.73
2019-04-03T10:42:13.482Z,11.93
2019-04-03T10:44:45.014Z,10.47
2019-04-03T10:47:16.589Z,10.30
2019-04-03T10:49:48.306Z,11.33
2019-04-03T10:52:19.848Z,10.80
2019-04-03T10:54:51.449Z,11.03
2019-04-03T10:57:23.017Z,11.20
2019-04-03T10:59:55.064Z,9.63
2019-04-03T11:02:27.543Z,9.77
2019-04-03T11:05:00.532Z,10.20
2019-04-03T11:07:34.136Z,10.33
2019-04-03T11:10:07.173Z,10.57
2019-04-03T11:12:38.992Z,9.47
2019-04-03T11:15:12.750Z,9.53
2019-04-03T11:17:44.621Z,10.27
2019-04-03T11:20:16.890Z,10.60
2019-04-03T11:23:04.115Z,9.57
2019-04-03T11:25:25.144Z,10.57
2019-04-03T11:27:57.275Z,10.17
2019-04-03T11:30:29.684Z,9.47
2019-04-03T11:33:01.609Z,11.17
2019-04-03T11:35:33.251Z,10.20
2019-04-03T11:38:13.329Z,9.80
2019-04-03T11:40:39.724Z,9.90
2019-04-03T11:43:13.143Z,9.13
2019-04-03T11:45:46.340Z,9.17
2019-04-03T11:48:18.077Z,8.20
2019-04-03T11:50:49.979Z,9.70
2019-04-03T11:53:21.838Z,10.50
2019-04-03T11:55:53.741Z,10.67
2019-04-03T11:58:25.560Z,10.23
2019-04-03T12:00:57.457Z,11.13
2019-04-03T12:03:29.249Z,9.87
2019-04-03T12:06:03.608Z,11.33
2019-04-03T12:08:35.334Z,10.37
2019-04-03T12:11:07.524Z,10.37
2019-04-03T12:13:39.151Z,11.03
2019-04-03T12:16:10.928Z,9.90
2019-04-03T12:18:42.719Z,10.20
2019-04-03T12:21:18.295Z,12.07
2019-04-03T12:23:49.686Z,10.63
2019-04-03T12:26:21.422Z,9.87
2019-04-03T12:28:53.107Z,10.03
2019-04-03T12:31:24.952Z,10.50
2019-04-03T12:34:04.182Z,10.80
2019-04-03T12:36:33.963Z,10.20
2019-04-03T12:39:18.682Z,10.40
2019-04-03T12:41:58.237Z,11.13
2019-04-03T12:44:30.258Z,10.87
2019-04-03T12:47:03.062Z,12.63
2019-04-03T12:49:35.126Z,11.37
2019-04-03T12:52:06.851Z,12.80
2019-04-03T12:54:40.283Z,10.77
2019-04-03T12:57:13.496Z,11.20
2019-04-03T12:59:46.747Z,10.23
2019-04-03T13:02:21.009Z,12.53
2019-04-03T13:04:53.699Z,11.50
2019-04-03T13:07:25.290Z,10.10
2019-04-03T13:10:00.265Z,11.20
2019-04-03T13:12:34.433Z,11.13
2019-04-03T13:15:08.138Z,10.37
2019-04-03T13:17:43.276Z,10.67
2019-04-03T13:20:14.003Z,11.90
2019-04-03T13:22:46.106Z,12.13
2019-04-03T13:25:20.203Z,12.60
2019-04-03T13:27:54.420Z,11.03
2019-04-03T13:30:26.716Z,12.63
2019-04-03T13:33:05.676Z,10.97
2019-04-03T13:35:36.023Z,10.37
2019-04-03T13:38:08.437Z,10.63
2019-04-03T13:40:40.047Z,11.53
2019-04-03T13:43:11.732Z,10.93
2019-04-03T13:45:43.613Z,11.33
2019-04-03T13:48:15.481Z,11.83
2019-04-03T13:50:47.292Z,10.50
2019-04-03T13:53:20.450Z,11.23
2019-04-03T13:55:52.169Z,10.60
2019-04-03T13:58:26.922Z,10.53
2019-04-03T14:01:01.951Z,11.00
2019-04-03T14:03:30.961Z,11.30
2019-04-03T14:06:04.494Z,11.73
2019-04-03T14:08:35.955Z,9.90
2019-04-03T14:11:07.592Z,10.80
2019-04-03T14:13:39.420Z,12.77
2019-04-03T14:16:19.935Z,10.93
2019-04-03T14:18:45.937Z,12.37
2019-04-03T14:21:17.594Z,11.10
2019-04-03T14:23:49.753Z,10.40
2019-04-03T14:26:21.615Z,11.80
2019-04-03T14:28:54.414Z,13.07
2019-04-03T14:31:34.792Z,11.40
2019-04-03T14:34:01.322Z,10.37
2019-04-03T14:36:34.168Z,11.00
2019-04-03T14:39:09.064Z,11.20
2019-04-03T14:41:41.143Z,10.83
2019-04-03T14:44:13.154Z,11.33
2019-04-03T14:46:44.794Z,11.37
2019-04-03T14:49:16.736Z,11.97
2019-04-03T14:51:48.994Z,10.67
2019-04-03T14:54:24.537Z,10.97
2019-04-03T14:56:58.218Z,10.07
2019-04-03T14:59:35.325Z,10.23
2019-04-03T15:02:07.362Z,10.23
2019-04-03T15:04:39.362Z,9.80
2019-04-03T15:07:11.178Z,11.47
2019-04-03T15:09:46.415Z,10.27
2019-04-03T15:12:18.182Z,9.87
2019-04-03T15:14:49.802Z,9.90
2019-04-03T15:17:21.702Z,10.37
2019-04-03T15:19:56.053Z,11.17
2019-04-03T15:22:28.518Z,12.50
2019-04-03T15:25:03.040Z,11.30
2019-04-03T15:27:37.106Z,11.57
2019-04-03T15:30:12.714Z,11.47
2019-04-03T15:32:44.677Z,11.23
2019-04-03T15:35:22.220Z,10.03
2019-04-03T15:37:53.950Z,9.73
2019-04-03T15:40:27.630Z,10.97
2019-04-03T15:43:01.469Z,9.83
2019-04-03T15:45:33.258Z,10.37
2019-04-03T15:48:07.069Z,9.63
2019-04-03T15:50:39.159Z,10.33
2019-04-03T15:53:10.820Z,9.40
2019-04-03T15:55:42.659Z,10.77
2019-04-03T15:58:14.843Z,10.40
2019-04-03T16:00:47.066Z,9.70
2019-04-03T16:03:18.979Z,9.33
2019-04-03T16:05:57.767Z,9.97
2019-04-03T16:08:29.942Z,9.90
2019-04-03T16:11:03.704Z,9.10
2019-04-03T16:13:36.512Z,8.73
2019-04-03T16:16:08.470Z,10.73
2019-04-03T16:18:40.202Z,10.20
2019-04-03T16:21:12.094Z,11.27
2019-04-03T16:23:44.040Z,10.87
2019-04-03T16:26:15.902Z,9.53
2019-04-03T16:28:47.856Z,9.40
2019-04-03T16:31:20.523Z,10.40
2019-04-03T16:33:55.254Z,11.03
2019-04-03T16:36:26.794Z,9.10
2019-04-03T16:39:00.712Z,9.60
2019-04-03T16:41:31.427Z,8.67
2019-04-03T16:44:03.136Z,10.27
2019-04-03T16:46:34.767Z,9.10
2019-04-03T16:49:07.726Z,10.73
2019-04-03T16:51:39.624Z,9.93
2019-04-03T16:54:12.833Z,9.97
2019-04-03T16:56:45.276Z,9.57
2019-04-03T16:59:20.592Z,11.53
2019-04-03T17:01:53.314Z,10.17
2019-04-03T17:04:27.918Z,9.57
2019-04-03T17:06:58.460Z,8.87
2019-04-03T17:09:37.485Z,10.30
2019-04-03T17:12:10.762Z,9.70
2019-04-03T17:14:43.998Z,9.60
2019-04-03T17:17:15.665Z,9.87
2019-04-03T17:19:49.747Z,10.07
2019-04-03T17:22:22.161Z,8.93
2019-04-03T17:25:01.608Z,9.90
2019-04-03T17:27:33.530Z,10.80
2019-04-03T17:30:07.133Z,12.90
2019-04-03T17:32:38.884Z,11.50
2019-04-03T17:35:14.578Z,10.87
2019-04-03T17:37:48.326Z,10.20
2019-04-03T17:40:20.290Z,10.23
2019-04-03T17:42:51.916Z,10.70
2019-04-03T17:45:23.707Z,11.00
2019-04-03T17:47:57.884Z,10.90
2019-04-03T17:50:30.306Z,11.03
2019-04-03T17:53:02.025Z,10.07
2019-04-03T17:55:33.773Z,11.73
2019-04-03T17:58:05.521Z,10.97
2019-04-03T18:00:37.428Z,10.57
2019-04-03T18:03:09.382Z,10.10
2019-04-03T18:05:41.258Z,12.97
2019-04-03T18:08:13.176Z,10.43
2019-04-03T18:10:45.128Z,11.30
2019-04-03T18:13:16.928Z,9.30
2019-04-03T18:15:48.648Z,10.13
2019-04-03T18:18:22.993Z,11.87
2019-04-03T18:20:56.312Z,11.00
2019-04-03T18:23:28.062Z,10.63
2019-04-03T18:26:00.270Z,10.80
2019-04-03T18:28:32.188Z,10.50
2019-04-03T18:31:06.590Z,10.57
2019-04-03T18:33:38.273Z,10.13
2019-04-03T18:36:10.018Z,10.00
2019-04-03T18:38:42.062Z,9.87
2019-04-03T18:41:14.953Z,10.47
2019-04-03T18:43:47.629Z,9.90
2019-04-03T18:46:31.622Z,12.13
2019-04-03T18:48:58.738Z,11.50
2019-04-03T18:51:26.825Z,10.57
2019-04-03T18:53:58.655Z,10.03
2019-04-03T18:56:32.298Z,9.27
2019-04-03T18:59:04.422Z,10.97
2019-04-03T19:01:38.000Z,10.47
2019-04-03T19:04:09.656Z,10.07
2019-04-03T19:06:47.517Z,11.07
2019-04-03T19:09:21.245Z,10.40
2019-04-03T19:11:52.814Z,10.87
2019-04-03T19:14:27.631Z,10.63
2019-04-03T19:16:57.989Z,10.77
2019-04-03T19:19:34.158Z,9.40
2019-04-03T19:22:05.923Z,11.03
2019-04-03T19:24:39.083Z,12.23
2019-04-03T19:27:10.886Z,10.90
2019-04-03T19:29:42.714Z,9.73
2019-04-03T19:32:14.451Z,11.63
2019-04-03T19:34:52.670Z,9.73
2019-04-03T19:37:24.958Z,11.13
2019-04-03T19:39:58.139Z,11.37
2019-04-03T19:42:29.873Z,10.90
2019-04-03T19:45:01.790Z,11.63
2019-04-03T19:47:33.833Z,10.43
2019-04-03T19:50:08.231Z,10.73
2019-04-03T19:52:42.207Z,10.27
2019-04-03T19:55:15.123Z,10.20
2019-04-03T19:57:46.886Z,10.33
2019-04-03T20:00:24.808Z,12.47
2019-04-03T20:02:56.567Z,11.20
2019-04-03T20:05:33.065Z,10.80
2019-04-03T20:08:06.776Z,10.50
2019-04-03T20:10:39.617Z,10.87
2019-04-03T20:13:13.864Z,10.43
2019-04-03T20:15:45.784Z,10.83
2019-04-03T20:18:18.834Z,10.60
2019-04-03T20:20:50.533Z,9.27
2019-04-03T20:23:22.188Z,11.87
2019-04-03T20:25:56.743Z,10.87
2019-04-03T20:28:28.642Z,11.00
2019-04-03T20:31:03.802Z,10.63
2019-04-03T20:33:38.469Z,10.87
2019-04-03T20:36:10.063Z,10.93
2019-04-03T20:38:41.938Z,10.97
2019-04-03T20:41:15.790Z,10.63
2019-04-03T20:43:51.981Z,10.73
2019-04-03T20:46:27.184Z,10.30
2019-04-03T20:49:02.807Z,12.30
2019-04-03T20:51:32.709Z,10.70
2019-04-03T20:54:04.713Z,10.20
2019-04-03T20:56:37.598Z,10.17
2019-04-03T20:59:11.970Z,11.17
2019-04-03T21:01:42.749Z,10.87
2019-04-03T21:04:14.935Z,12.43
2019-04-03T21:06:47.254Z,12.30
2019-04-03T21:09:19.026Z,11.53
2019-04-03T21:11:50.673Z,11.03
2019-04-03T21:14:22.650Z,11.67
2019-04-03T21:16:56.054Z,11.33
2019-04-03T21:19:27.713Z,10.83
2019-04-03T21:21:59.723Z,10.57
2019-04-03T21:24:34.136Z,13.07
2019-04-03T21:27:08.892Z,12.57
2019-04-03T21:29:41.216Z,12.57
2019-04-03T21:32:14.150Z,10.93
2019-04-03T21:34:47.115Z,11.57
2019-04-03T21:37:18.802Z,10.73
2019-04-03T21:39:50.432Z,12.53
2019-04-03T21:42:22.216Z,12.33
2019-04-03T21:44:53.906Z,12.10
2019-04-03T21:47:25.721Z,12.03
2019-04-03T21:49:57.448Z,12.73
2019-04-03T21:52:29.186Z,10.77
2019-04-03T21:55:00.915Z,13.20
2019-04-03T21:57:32.550Z,13.53
2019-04-03T22:00:08.060Z,11.53
2019-04-03T22:02:41.482Z,10.77
2019-04-03T22:05:13.273Z,11.43
2019-04-03T22:07:45.255Z,12.47
2019-04-03T22:10:17.076Z,14.63
2019-04-03T22:12:49.045Z,12.70
2019-04-03T22:15:23.175Z,13.20
2019-04-03T22:17:59.786Z,11.67
2019-04-03T22:20:31.563Z,12.20
2019-04-03T22:23:05.461Z,11.63
2019-04-03T22:25:39.353Z,11.30
2019-04-03T22:28:14.338Z,12.80
2019-04-03T22:30:46.104Z,12.60
2019-04-03T22:33:17.942Z,11.47
2019-04-03T22:35:49.708Z,12.60
2019-04-03T22:38:21.389Z,12.27
2019-04-03T22:40:56.469Z,11.50
2019-04-03T22:43:32.387Z,13.50
2019-04-03T22:46:08.918Z,12.97
2019-04-03T22:48:40.611Z,11.80
2019-04-03T22:51:12.375Z,12.97
2019-04-03T22:53:46.033Z,11.93
2019-04-03T22:56:20.095Z,12.90
2019-04-03T22:58:52.862Z,11.77
2019-04-03T23:01:25.065Z,12.07
2019-04-03T23:03:56.750Z,12.10
2019-04-03T23:06:28.541Z,12.53
2019-04-03T23:09:00.206Z,12.73
2019-04-03T23:11:32.545Z,12.77
2019-04-03T23:14:06.772Z,13.07
2019-04-03T23:16:42.391Z,12.57
2019-04-03T23:19:12.865Z,12.57
2019-04-03T23:21:46.528Z,12.70
2019-04-03T23:24:18.621Z,12.53
2019-04-03T23:26:50.566Z,12.90
2019-04-03T23:29:22.671Z,14.80
2019-04-03T23:31:55.521Z,14.33
2019-04-03T23:34:30.333Z,13.03
2019-04-03T23:37:02.324Z,15.63
2019-04-03T23:39:36.837Z,12.93
2019-04-03T23:42:08.685Z,11.97
2019-04-03T23:44:42.132Z,12.93
2019-04-03T23:47:16.364Z,13.70
2019-04-03T23:49:50.797Z,13.53
2019-04-03T23:52:21.124Z,12.37
2019-04-03T23:54:55.463Z,13.57
2019-04-03T23:57:34.043Z,12.37
